RYR57GB LEMD-EGSS
Flight info
| Callsign | RYR57GB |
|---|---|
| Flight time | N/A |
| Altitude | 36000 |
| Route | SIE N858 DGO N867 BLV P87 BELEN DCT DIDIG UP87 MOKOR UN873 OLEBA DCT ROGPU DCT DIKRO UM185 TELTU |
| Aircraft | B738/M-SDE3FGILRWY/SB1 |
Departure
| Time | 2026-05-07 20:26 |
|---|---|
| Airport | Adolfo Suárez Madrid–Barajas Airport (LEMD) |
Arrival
| Time | N/A |
|---|---|
| Airport | London Stansted Airport (EGSS) |
| Time | Latitude | Longitude | Altitude | Speed | Heading |
|---|---|---|---|---|---|
| 2026-05-07 19:51 | 40.46499 | -3.56806 | 1971 ft | 0 kts | 272° |
| 2026-05-07 20:15 | 40.46498 | -3.56775 | 1971 ft | 4 kts | 271° |
| 2026-05-07 20:15 | 40.46497 | -3.56747 | 1977 ft | 4 kts | 281° |
| 2026-05-07 20:16 | 40.46486 | -3.56721 | 1975 ft | 4 kts | 341° |
| 2026-05-07 20:16 | 40.46462 | -3.56719 | 1974 ft | 4 kts | 3° |
| 2026-05-07 20:16 | 40.46452 | -3.56720 | 1972 ft | 1 kts | 3° |
| 2026-05-07 20:19 | 40.46454 | -3.56720 | 1972 ft | 1 kts | 3° |
| 2026-05-07 20:19 | 40.46477 | -3.56716 | 1975 ft | 7 kts | 3° |
| 2026-05-07 20:19 | 40.46546 | -3.56712 | 1976 ft | 13 kts | 3° |
| 2026-05-07 20:19 | 40.46655 | -3.56704 | 1972 ft | 18 kts | 3° |
| 2026-05-07 20:20 | 40.46772 | -3.56693 | 1973 ft | 15 kts | 15° |
| 2026-05-07 20:20 | 40.46803 | -3.56598 | 1973 ft | 12 kts | 94° |
| 2026-05-07 20:20 | 40.46809 | -3.56483 | 1979 ft | 14 kts | 50° |
| 2026-05-07 20:20 | 40.46916 | -3.56454 | 1974 ft | 18 kts | 4° |
| 2026-05-07 20:21 | 40.47051 | -3.56461 | 1977 ft | 21 kts | 347° |
| 2026-05-07 20:21 | 40.47186 | -3.56544 | 1979 ft | 22 kts | 324° |
| 2026-05-07 20:21 | 40.47310 | -3.56671 | 1985 ft | 22 kts | 322° |
| 2026-05-07 20:21 | 40.47437 | -3.56800 | 1989 ft | 24 kts | 322° |
| 2026-05-07 20:22 | 40.47577 | -3.56941 | 1992 ft | 26 kts | 321° |
| 2026-05-07 20:22 | 40.47719 | -3.57087 | 1997 ft | 25 kts | 322° |
| 2026-05-07 20:22 | 40.47863 | -3.57234 | 2002 ft | 28 kts | 322° |
| 2026-05-07 20:22 | 40.47997 | -3.57370 | 2003 ft | 25 kts | 322° |
| 2026-05-07 20:23 | 40.48143 | -3.57518 | 1999 ft | 28 kts | 322° |
| 2026-05-07 20:23 | 40.48293 | -3.57671 | 1995 ft | 27 kts | 322° |
| 2026-05-07 20:23 | 40.48439 | -3.57807 | 1990 ft | 25 kts | 330° |
| 2026-05-07 20:23 | 40.48587 | -3.57909 | 1997 ft | 23 kts | 337° |
| 2026-05-07 20:24 | 40.48743 | -3.57925 | 1998 ft | 22 kts | 0° |
| 2026-05-07 20:24 | 40.48897 | -3.57927 | 1998 ft | 22 kts | 359° |
| 2026-05-07 20:24 | 40.49047 | -3.57930 | 1997 ft | 22 kts | 359° |
| 2026-05-07 20:24 | 40.49162 | -3.57898 | 1996 ft | 13 kts | 55° |
| 2026-05-07 20:25 | 40.49173 | -3.57765 | 1991 ft | 16 kts | 90° |
| 2026-05-07 20:25 | 40.49174 | -3.57623 | 1989 ft | 15 kts | 81° |
| 2026-05-07 20:25 | 40.49217 | -3.57498 | 1986 ft | 15 kts | 62° |
| 2026-05-07 20:25 | 40.49312 | -3.57451 | 1982 ft | 17 kts | 0° |
| 2026-05-07 20:26 | 40.49587 | -3.57452 | 1984 ft | 73 kts | 0° |
| 2026-05-07 20:26 | 40.50320 | -3.57459 | 1989 ft | 135 kts | 360° |
| 2026-05-07 20:26 | 40.51402 | -3.57453 | 2118 ft | 174 kts | 2° |
| 2026-05-07 20:26 | 40.52628 | -3.57448 | 2829 ft | 177 kts | 0° |
| 2026-05-07 20:27 | 40.53881 | -3.57456 | 3572 ft | 186 kts | 0° |
| 2026-05-07 20:27 | 40.55275 | -3.57469 | 3874 ft | 215 kts | 0° |
| 2026-05-07 20:27 | 40.56814 | -3.57489 | 4336 ft | 226 kts | 0° |
| 2026-05-07 20:27 | 40.58415 | -3.57515 | 4907 ft | 232 kts | 0° |
| 2026-05-07 20:28 | 40.60070 | -3.57534 | 5330 ft | 250 kts | 0° |
| 2026-05-07 20:28 | 40.61894 | -3.57539 | 5767 ft | 268 kts | 0° |
| 2026-05-07 20:28 | 40.63773 | -3.57542 | 6606 ft | 271 kts | 360° |
| 2026-05-07 20:28 | 40.65666 | -3.57546 | 7438 ft | 273 kts | 359° |
| 2026-05-07 20:29 | 40.67578 | -3.57551 | 8230 ft | 277 kts | 359° |
| 2026-05-07 20:29 | 40.69515 | -3.57557 | 9052 ft | 280 kts | 359° |
| 2026-05-07 20:29 | 40.71478 | -3.57563 | 9858 ft | 284 kts | 359° |
| 2026-05-07 20:29 | 40.73466 | -3.57569 | 10606 ft | 287 kts | 359° |
| 2026-05-07 20:30 | 40.75447 | -3.57576 | 11342 ft | 290 kts | 359° |
| 2026-05-07 20:30 | 40.77497 | -3.57583 | 12108 ft | 293 kts | 359° |
| 2026-05-07 20:30 | 40.79520 | -3.57589 | 12852 ft | 296 kts | 359° |
| 2026-05-07 20:30 | 40.81592 | -3.57596 | 13607 ft | 299 kts | 359° |
| 2026-05-07 20:31 | 40.83681 | -3.57603 | 14289 ft | 302 kts | 359° |
| 2026-05-07 20:31 | 40.85793 | -3.57610 | 14993 ft | 304 kts | 359° |
| 2026-05-07 20:31 | 40.87927 | -3.57618 | 15614 ft | 309 kts | 359° |
| 2026-05-07 20:31 | 40.90086 | -3.57627 | 16321 ft | 310 kts | 358° |
| 2026-05-07 20:32 | 40.92281 | -3.57764 | 16706 ft | 325 kts | 354° |
| 2026-05-07 20:32 | 40.94596 | -3.58039 | 16960 ft | 341 kts | 353° |
| 2026-05-07 20:32 | 40.96974 | -3.58347 | 17595 ft | 345 kts | 353° |
| 2026-05-07 20:32 | 40.99365 | -3.58649 | 18321 ft | 346 kts | 353° |
| 2026-05-07 20:33 | 41.01775 | -3.58943 | 18947 ft | 348 kts | 353° |
| 2026-05-07 20:33 | 41.04191 | -3.59228 | 19596 ft | 348 kts | 353° |
| 2026-05-07 20:33 | 41.06606 | -3.59508 | 20235 ft | 349 kts | 352° |
| 2026-05-07 20:33 | 41.09000 | -3.59784 | 20854 ft | 351 kts | 352° |
| 2026-05-07 20:34 | 41.11479 | -3.60071 | 21434 ft | 354 kts | 352° |
| 2026-05-07 20:34 | 41.13919 | -3.60201 | 22041 ft | 358 kts | 0° |
| 2026-05-07 20:34 | 41.16408 | -3.59723 | 22664 ft | 363 kts | 10° |
| 2026-05-07 20:34 | 41.18828 | -3.58662 | 23255 ft | 369 kts | 18° |
| 2026-05-07 20:35 | 41.21217 | -3.57363 | 23756 ft | 372 kts | 18° |
| 2026-05-07 20:35 | 41.23614 | -3.56013 | 24188 ft | 376 kts | 18° |
| 2026-05-07 20:35 | 41.26031 | -3.54649 | 24610 ft | 379 kts | 18° |
| 2026-05-07 20:35 | 41.28471 | -3.53284 | 25045 ft | 382 kts | 17° |
| 2026-05-07 20:36 | 41.30932 | -3.51919 | 25469 ft | 385 kts | 17° |
| 2026-05-07 20:36 | 41.33415 | -3.50550 | 25892 ft | 388 kts | 17° |
| 2026-05-07 20:36 | 41.35889 | -3.49190 | 26319 ft | 390 kts | 17° |
| 2026-05-07 20:36 | 41.38440 | -3.47789 | 26736 ft | 393 kts | 16° |
| 2026-05-07 20:37 | 41.40942 | -3.46413 | 27135 ft | 396 kts | 16° |
| 2026-05-07 20:37 | 41.43496 | -3.45008 | 27545 ft | 398 kts | 15° |
| 2026-05-07 20:37 | 41.46066 | -3.43593 | 27938 ft | 401 kts | 15° |
| 2026-05-07 20:37 | 41.48663 | -3.42226 | 28388 ft | 398 kts | 10° |
| 2026-05-07 20:38 | 41.51326 | -3.41353 | 28857 ft | 393 kts | 4° |
| 2026-05-07 20:38 | 41.54008 | -3.40655 | 29319 ft | 392 kts | 3° |
| 2026-05-07 20:38 | 41.56693 | -3.39993 | 29726 ft | 393 kts | 2° |
| 2026-05-07 20:38 | 41.59392 | -3.39328 | 30070 ft | 396 kts | 2° |
| 2026-05-07 20:39 | 41.62108 | -3.38645 | 30360 ft | 398 kts | 2° |
| 2026-05-07 20:39 | 41.64835 | -3.37944 | 30656 ft | 400 kts | 2° |
| 2026-05-07 20:39 | 41.67580 | -3.37226 | 30953 ft | 402 kts | 2° |
| 2026-05-07 20:39 | 41.70335 | -3.36497 | 31240 ft | 404 kts | 2° |
| 2026-05-07 20:40 | 41.73102 | -3.35759 | 31530 ft | 406 kts | 2° |
| 2026-05-07 20:40 | 41.75884 | -3.35014 | 31842 ft | 408 kts | 2° |
| 2026-05-07 20:40 | 41.78669 | -3.34266 | 32127 ft | 409 kts | 2° |
| 2026-05-07 20:40 | 41.81468 | -3.33514 | 32387 ft | 411 kts | 2° |
| 2026-05-07 20:41 | 41.84240 | -3.32769 | 32633 ft | 413 kts | 2° |
| 2026-05-07 20:41 | 41.87070 | -3.32007 | 32885 ft | 415 kts | 2° |
| 2026-05-07 20:41 | 41.89906 | -3.31242 | 33145 ft | 417 kts | 2° |
| 2026-05-07 20:41 | 41.92752 | -3.30475 | 33397 ft | 418 kts | 2° |
| 2026-05-07 20:42 | 41.95618 | -3.29702 | 33656 ft | 420 kts | 2° |
| 2026-05-07 20:42 | 41.98485 | -3.28927 | 33904 ft | 421 kts | 2° |
| 2026-05-07 20:42 | 42.01363 | -3.28149 | 34097 ft | 423 kts | 2° |
| 2026-05-07 20:42 | 42.04268 | -3.27363 | 34253 ft | 425 kts | 2° |
| 2026-05-07 20:43 | 42.07178 | -3.26575 | 34410 ft | 428 kts | 2° |
| 2026-05-07 20:43 | 42.10101 | -3.25783 | 34577 ft | 430 kts | 3° |
| 2026-05-07 20:43 | 42.13000 | -3.24996 | 34752 ft | 431 kts | 3° |
| 2026-05-07 20:43 | 42.15950 | -3.24195 | 34891 ft | 434 kts | 4° |
| 2026-05-07 20:44 | 42.18913 | -3.23387 | 35023 ft | 436 kts | 4° |
| 2026-05-07 20:44 | 42.21890 | -3.22577 | 35169 ft | 437 kts | 4° |
| 2026-05-07 20:44 | 42.24880 | -3.21763 | 35339 ft | 439 kts | 4° |
| 2026-05-07 20:44 | 42.27874 | -3.20943 | 35564 ft | 438 kts | 4° |
| 2026-05-07 20:45 | 42.30869 | -3.20123 | 35746 ft | 439 kts | 4° |
| 2026-05-07 20:45 | 42.33858 | -3.19306 | 35922 ft | 439 kts | 5° |
| 2026-05-07 20:45 | 42.36865 | -3.18486 | 35960 ft | 443 kts | 5° |
| 2026-05-07 20:46 | 42.42963 | -3.16822 | 35960 ft | 450 kts | 5° |
| 2026-05-07 20:46 | 42.49150 | -3.15126 | 35950 ft | 455 kts | 5° |
| 2026-05-07 20:47 | 42.55368 | -3.13413 | 35952 ft | 457 kts | 5° |
| 2026-05-07 20:47 | 42.61601 | -3.11693 | 35954 ft | 458 kts | 5° |
| 2026-05-07 20:48 | 42.67808 | -3.09979 | 35947 ft | 457 kts | 5° |
| 2026-05-07 20:48 | 42.74035 | -3.08255 | 35930 ft | 457 kts | 5° |
| 2026-05-07 20:49 | 42.80301 | -3.06518 | 35940 ft | 456 kts | 5° |
| 2026-05-07 20:49 | 42.86465 | -3.04806 | 35943 ft | 455 kts | 6° |
| 2026-05-07 20:50 | 42.92680 | -3.03077 | 35940 ft | 456 kts | 6° |
| 2026-05-07 20:50 | 42.97900 | -3.01621 | 35930 ft | 456 kts | 6° |
| 2026-05-07 20:51 | 43.04083 | -2.99895 | 35934 ft | 457 kts | 7° |
| 2026-05-07 20:51 | 43.10318 | -2.98149 | 35921 ft | 458 kts | 7° |
| 2026-05-07 20:52 | 43.16567 | -2.96396 | 35907 ft | 459 kts | 7° |
| 2026-05-07 20:52 | 43.22823 | -2.94636 | 35924 ft | 458 kts | 7° |
| 2026-05-07 20:53 | 43.29079 | -2.92874 | 35915 ft | 459 kts | 7° |
| 2026-05-07 20:53 | 43.35336 | -2.91079 | 35906 ft | 459 kts | 7° |
| 2026-05-07 20:54 | 43.41587 | -2.89247 | 35926 ft | 459 kts | 7° |
| 2026-05-07 20:54 | 43.47852 | -2.87409 | 35908 ft | 460 kts | 7° |
| 2026-05-07 20:55 | 43.54070 | -2.85585 | 35905 ft | 459 kts | 7° |
| 2026-05-07 20:55 | 43.60322 | -2.83749 | 35913 ft | 459 kts | 8° |
| 2026-05-07 20:56 | 43.66575 | -2.81910 | 35903 ft | 459 kts | 8° |
| 2026-05-07 20:56 | 43.72825 | -2.79983 | 35902 ft | 460 kts | 9° |
| 2026-05-07 20:57 | 43.79056 | -2.77934 | 35900 ft | 460 kts | 9° |
| 2026-05-07 20:57 | 43.85294 | -2.75894 | 35911 ft | 460 kts | 9° |
| 2026-05-07 20:58 | 43.91534 | -2.73868 | 35905 ft | 460 kts | 8° |
| 2026-05-07 20:58 | 43.97771 | -2.72322 | 35911 ft | 458 kts | 5° |
| 2026-05-07 20:59 | 44.04068 | -2.71017 | 35924 ft | 458 kts | 4° |
| 2026-05-07 20:59 | 44.10371 | -2.69690 | 35915 ft | 458 kts | 5° |
| 2026-05-07 21:00 | 44.16668 | -2.68315 | 35916 ft | 458 kts | 5° |
| 2026-05-07 21:00 | 44.22969 | -2.66914 | 35930 ft | 458 kts | 5° |
| 2026-05-07 21:01 | 44.29270 | -2.65507 | 35926 ft | 459 kts | 5° |
| 2026-05-07 21:01 | 44.35586 | -2.64095 | 35926 ft | 460 kts | 5° |
| 2026-05-07 21:02 | 44.41916 | -2.62677 | 35935 ft | 460 kts | 5° |
| 2026-05-07 21:02 | 44.48240 | -2.61258 | 35927 ft | 461 kts | 5° |
| 2026-05-07 21:03 | 44.54584 | -2.59832 | 35928 ft | 462 kts | 5° |
| 2026-05-07 21:03 | 44.60926 | -2.58402 | 35947 ft | 462 kts | 6° |
| 2026-05-07 21:04 | 44.67275 | -2.56968 | 35943 ft | 462 kts | 6° |
| 2026-05-07 21:04 | 44.73634 | -2.55528 | 35939 ft | 462 kts | 6° |
| 2026-05-07 21:05 | 44.79984 | -2.54087 | 35936 ft | 462 kts | 6° |
| 2026-05-07 21:05 | 44.86340 | -2.52642 | 35941 ft | 462 kts | 6° |
| 2026-05-07 21:06 | 44.92649 | -2.51204 | 35949 ft | 462 kts | 6° |
| 2026-05-07 21:06 | 44.98998 | -2.49754 | 35950 ft | 462 kts | 6° |
| 2026-05-07 21:07 | 45.05348 | -2.48300 | 35957 ft | 462 kts | 6° |
| 2026-05-07 21:07 | 45.11698 | -2.46843 | 35944 ft | 462 kts | 6° |
| 2026-05-07 21:08 | 45.18053 | -2.45382 | 35959 ft | 462 kts | 6° |
| 2026-05-07 21:08 | 45.24412 | -2.43917 | 35955 ft | 463 kts | 6° |
| 2026-05-07 21:09 | 45.30766 | -2.42449 | 35960 ft | 463 kts | 6° |
| 2026-05-07 21:09 | 45.37126 | -2.40976 | 35970 ft | 463 kts | 6° |
| 2026-05-07 21:10 | 45.43441 | -2.39511 | 35961 ft | 463 kts | 6° |
| 2026-05-07 21:10 | 45.49804 | -2.38031 | 35964 ft | 463 kts | 6° |
| 2026-05-07 21:11 | 45.56166 | -2.36548 | 35975 ft | 463 kts | 6° |
| 2026-05-07 21:11 | 45.65711 | -2.34317 | 35969 ft | 463 kts | 6° |
| 2026-05-07 21:12 | 45.72079 | -2.32824 | 35973 ft | 464 kts | 6° |
| 2026-05-07 21:12 | 45.78463 | -2.31323 | 35982 ft | 465 kts | 6° |
| 2026-05-07 21:13 | 45.84854 | -2.29818 | 35980 ft | 466 kts | 6° |
| 2026-05-07 21:13 | 45.91259 | -2.28305 | 35981 ft | 467 kts | 6° |
| 2026-05-07 21:14 | 45.97641 | -2.26795 | 35988 ft | 468 kts | 7° |
| 2026-05-07 21:14 | 46.04071 | -2.25269 | 35980 ft | 468 kts | 7° |
| 2026-05-07 21:15 | 46.10498 | -2.23724 | 35984 ft | 468 kts | 7° |
| 2026-05-07 21:15 | 46.16924 | -2.22155 | 35996 ft | 469 kts | 7° |
| 2026-05-07 21:16 | 46.23360 | -2.20580 | 35987 ft | 469 kts | 7° |
| 2026-05-07 21:16 | 46.29800 | -2.19003 | 35986 ft | 469 kts | 7° |
| 2026-05-07 21:17 | 46.36232 | -2.17425 | 35993 ft | 469 kts | 7° |
| 2026-05-07 21:17 | 46.42663 | -2.15844 | 35988 ft | 469 kts | 7° |
| 2026-05-07 21:18 | 46.49091 | -2.14260 | 35989 ft | 469 kts | 7° |
| 2026-05-07 21:18 | 46.55524 | -2.12671 | 36002 ft | 468 kts | 7° |
| 2026-05-07 21:19 | 46.61916 | -2.11088 | 35990 ft | 469 kts | 7° |
| 2026-05-07 21:19 | 46.68346 | -2.09492 | 35986 ft | 469 kts | 7° |
| 2026-05-07 21:20 | 46.74777 | -2.07891 | 35989 ft | 469 kts | 7° |
| 2026-05-07 21:20 | 46.81199 | -2.06289 | 35989 ft | 468 kts | 7° |
| 2026-05-07 21:21 | 46.87631 | -2.04681 | 35989 ft | 468 kts | 7° |
| 2026-05-07 21:21 | 46.94057 | -2.03070 | 35979 ft | 469 kts | 7° |
| 2026-05-07 21:22 | 47.00390 | -2.00720 | 35990 ft | 473 kts | 21° |
| 2026-05-07 21:22 | 47.06034 | -1.95754 | 35995 ft | 477 kts | 37° |
| 2026-05-07 21:23 | 47.11236 | -1.89753 | 35987 ft | 478 kts | 36° |
| 2026-05-07 21:23 | 47.16930 | -1.84819 | 36006 ft | 475 kts | 19° |
| 2026-05-07 21:24 | 47.22685 | -1.82582 | 36005 ft | 472 kts | 8° |
| 2026-05-07 21:24 | 47.25467 | -1.81822 | 35990 ft | 472 kts | 8° |
| 2026-05-07 21:25 | 47.31945 | -1.80081 | 35992 ft | 473 kts | 8° |
| 2026-05-07 21:25 | 47.38420 | -1.78276 | 35999 ft | 473 kts | 8° |
| 2026-05-07 21:26 | 47.44888 | -1.76421 | 35988 ft | 474 kts | 9° |
| 2026-05-07 21:26 | 47.51355 | -1.74547 | 35990 ft | 473 kts | 9° |
| 2026-05-07 21:27 | 47.57816 | -1.72670 | 35991 ft | 473 kts | 9° |
| 2026-05-07 21:27 | 47.64281 | -1.70790 | 35998 ft | 473 kts | 9° |
| 2026-05-07 21:28 | 47.70698 | -1.68920 | 35996 ft | 473 kts | 9° |
| 2026-05-07 21:28 | 47.77152 | -1.67036 | 35988 ft | 473 kts | 9° |
| 2026-05-07 21:29 | 47.83610 | -1.65144 | 36009 ft | 473 kts | 9° |
| 2026-05-07 21:29 | 47.90071 | -1.63247 | 36020 ft | 473 kts | 9° |
| 2026-05-07 21:30 | 47.96543 | -1.61342 | 36013 ft | 474 kts | 9° |
| 2026-05-07 21:30 | 48.03008 | -1.59435 | 36025 ft | 474 kts | 9° |
| 2026-05-07 21:31 | 48.09487 | -1.57518 | 36024 ft | 474 kts | 9° |
| 2026-05-07 21:31 | 48.15961 | -1.55598 | 36022 ft | 474 kts | 9° |
| 2026-05-07 21:32 | 48.22436 | -1.53672 | 36027 ft | 474 kts | 9° |
| 2026-05-07 21:32 | 48.28918 | -1.51740 | 36017 ft | 475 kts | 9° |
| 2026-05-07 21:33 | 48.35352 | -1.49816 | 36012 ft | 474 kts | 9° |
| 2026-05-07 21:33 | 48.41824 | -1.47877 | 36013 ft | 474 kts | 9° |
| 2026-05-07 21:34 | 48.48298 | -1.45932 | 36016 ft | 474 kts | 9° |
| 2026-05-07 21:34 | 48.54782 | -1.43978 | 36013 ft | 474 kts | 9° |
| 2026-05-07 21:35 | 48.61258 | -1.42022 | 36019 ft | 474 kts | 9° |
| 2026-05-07 21:35 | 48.67732 | -1.40061 | 36026 ft | 474 kts | 9° |
| 2026-05-07 21:36 | 48.74202 | -1.38051 | 36024 ft | 475 kts | 10° |
| 2026-05-07 21:36 | 48.80678 | -1.36005 | 36024 ft | 475 kts | 10° |
| 2026-05-07 21:37 | 48.87145 | -1.33959 | 36031 ft | 475 kts | 10° |
| 2026-05-07 21:37 | 48.93574 | -1.31926 | 36028 ft | 475 kts | 10° |
| 2026-05-07 21:38 | 49.00044 | -1.29876 | 36025 ft | 475 kts | 10° |
| 2026-05-07 21:38 | 49.06512 | -1.27821 | 36031 ft | 475 kts | 10° |
| 2026-05-07 21:39 | 49.12978 | -1.25761 | 36040 ft | 475 kts | 10° |
| 2026-05-07 21:39 | 49.19449 | -1.23694 | 36035 ft | 475 kts | 10° |
| 2026-05-07 21:40 | 49.24871 | -1.21958 | 36037 ft | 475 kts | 10° |
| 2026-05-07 21:40 | 49.31346 | -1.19879 | 36048 ft | 475 kts | 10° |
| 2026-05-07 21:41 | 49.37773 | -1.17811 | 36033 ft | 475 kts | 10° |
| 2026-05-07 21:41 | 49.44249 | -1.15720 | 36042 ft | 475 kts | 10° |
| 2026-05-07 21:42 | 49.50715 | -1.13628 | 36045 ft | 475 kts | 10° |
| 2026-05-07 21:42 | 49.57031 | -1.11218 | 36026 ft | 456 kts | 20° |
| 2026-05-07 21:43 | 49.62088 | -1.07057 | 36025 ft | 441 kts | 36° |
| 2026-05-07 21:43 | 49.64376 | -1.04309 | 36035 ft | 427 kts | 38° |
| 2026-05-07 21:43 | 49.66655 | -1.01511 | 36019 ft | 413 kts | 38° |
| 2026-05-07 21:44 | 49.70807 | -0.96517 | 36051 ft | 408 kts | 37° |
| 2026-05-07 21:44 | 49.75197 | -0.91974 | 36049 ft | 417 kts | 22° |
| 2026-05-07 21:45 | 49.80597 | -0.89800 | 36054 ft | 419 kts | 3° |
| 2026-05-07 21:45 | 49.86425 | -0.89069 | 36049 ft | 419 kts | 2° |
| 2026-05-07 21:46 | 49.92173 | -0.88326 | 36035 ft | 410 kts | 2° |
| 2026-05-07 21:46 | 49.97859 | -0.87513 | 36061 ft | 410 kts | 3° |
| 2026-05-07 21:47 | 50.03559 | -0.86693 | 36065 ft | 412 kts | 3° |
| 2026-05-07 21:47 | 50.09271 | -0.85888 | 36060 ft | 413 kts | 3° |
| 2026-05-07 21:48 | 50.14996 | -0.85079 | 36057 ft | 414 kts | 3° |
| 2026-05-07 21:48 | 50.20742 | -0.84263 | 36069 ft | 414 kts | 3° |
| 2026-05-07 21:49 | 50.26459 | -0.83449 | 36053 ft | 415 kts | 3° |
| 2026-05-07 21:49 | 50.32216 | -0.82627 | 36057 ft | 416 kts | 3° |
| 2026-05-07 21:50 | 50.37986 | -0.81788 | 36062 ft | 416 kts | 3° |
| 2026-05-07 21:50 | 50.43741 | -0.80943 | 36072 ft | 415 kts | 3° |
| 2026-05-07 21:51 | 50.49494 | -0.80098 | 36060 ft | 415 kts | 3° |
| 2026-05-07 21:51 | 50.55244 | -0.79252 | 36062 ft | 414 kts | 3° |
| 2026-05-07 21:52 | 50.60978 | -0.78407 | 36067 ft | 413 kts | 3° |
| 2026-05-07 21:52 | 50.66704 | -0.77575 | 36074 ft | 413 kts | 3° |
| 2026-05-07 21:53 | 50.72384 | -0.76760 | 36067 ft | 412 kts | 3° |
| 2026-05-07 21:53 | 50.78090 | -0.75936 | 36068 ft | 411 kts | 3° |
| 2026-05-07 21:54 | 50.83665 | -0.74077 | 36099 ft | 412 kts | 21° |
| 2026-05-07 21:54 | 50.88960 | -0.70546 | 36096 ft | 413 kts | 21° |
| 2026-05-07 21:55 | 50.94277 | -0.67038 | 36083 ft | 414 kts | 21° |
| 2026-05-07 21:55 | 50.99591 | -0.63580 | 36078 ft | 415 kts | 21° |
| 2026-05-07 21:56 | 51.04945 | -0.60107 | 36075 ft | 416 kts | 21° |
| 2026-05-07 21:56 | 51.10282 | -0.56641 | 36077 ft | 416 kts | 21° |
| 2026-05-07 21:57 | 51.15618 | -0.53165 | 36076 ft | 417 kts | 21° |
| 2026-05-07 21:57 | 51.21024 | -0.49633 | 36080 ft | 417 kts | 21° |
| 2026-05-07 21:58 | 51.26365 | -0.46135 | 36075 ft | 418 kts | 21° |
| 2026-05-07 21:58 | 51.31674 | -0.42649 | 36078 ft | 418 kts | 21° |
| 2026-05-07 21:59 | 51.37022 | -0.39129 | 36105 ft | 418 kts | 21° |
| 2026-05-07 21:59 | 51.42392 | -0.35586 | 36101 ft | 417 kts | 21° |
| 2026-05-07 22:00 | 51.47676 | -0.31805 | 36099 ft | 417 kts | 24° |
| 2026-05-07 22:00 | 51.52885 | -0.27740 | 36075 ft | 416 kts | 24° |
| 2026-05-07 22:01 | 51.58091 | -0.23694 | 36084 ft | 415 kts | 24° |
| 2026-05-07 22:01 | 51.63304 | -0.19679 | 36075 ft | 415 kts | 24° |
| 2026-05-07 22:02 | 51.68511 | -0.15668 | 36076 ft | 414 kts | 24° |
| 2026-05-07 22:02 | 51.73714 | -0.11651 | 36075 ft | 414 kts | 24° |
| 2026-05-07 22:03 | 51.78941 | -0.07792 | 36075 ft | 413 kts | 21° |
| 2026-05-07 22:03 | 51.84195 | -0.04181 | 36083 ft | 413 kts | 21° |
| 2026-05-07 22:04 | 51.89473 | -0.00512 | 36076 ft | 413 kts | 21° |
| 2026-05-07 22:04 | 51.94736 | 0.03193 | 36095 ft | 412 kts | 21° |
| 2026-05-07 22:05 | 52.00086 | 0.06401 | 36065 ft | 407 kts | 2° |
| 2026-05-07 22:05 | 52.05691 | 0.06599 | 36083 ft | 403 kts | 358° |
| 2026-05-07 22:06 | 52.11299 | 0.06626 | 36046 ft | 400 kts | 344° |
| 2026-05-07 22:06 | 52.13795 | 0.04919 | 36091 ft | 386 kts | 319° |
| 2026-05-07 22:06 | 52.15559 | 0.01742 | 36068 ft | 376 kts | 294° |
| 2026-05-07 22:07 | 52.16269 | -0.02272 | 36080 ft | 369 kts | 268° |
| 2026-05-07 22:07 | 52.15812 | -0.06347 | 36085 ft | 369 kts | 243° |
| 2026-05-07 22:07 | 52.14284 | -0.09684 | 36080 ft | 374 kts | 218° |
| 2026-05-07 22:07 | 52.11967 | -0.11619 | 36083 ft | 382 kts | 194° |
| 2026-05-07 22:08 | 52.09302 | -0.11754 | 36080 ft | 391 kts | 169° |
| 2026-05-07 22:08 | 52.06727 | -0.10250 | 36101 ft | 395 kts | 160° |
| 2026-05-07 22:08 | 52.01505 | -0.07947 | 36069 ft | 384 kts | 179° |
| 2026-05-07 22:09 | 51.98870 | -0.07336 | 36037 ft | 386 kts | 161° |
| 2026-05-07 22:09 | 51.96600 | -0.05147 | 36111 ft | 388 kts | 144° |
| 2026-05-07 22:09 | 51.92117 | -0.00063 | 36085 ft | 396 kts | 149° |
| 2026-05-07 22:10 | 51.87165 | 0.03435 | 36106 ft | 386 kts | 184° |
| 2026-05-07 22:10 | 51.84570 | 0.02845 | 36108 ft | 382 kts | 200° |
| 2026-05-07 22:10 | 51.82161 | 0.00976 | 36127 ft | 379 kts | 211° |
| 2026-05-07 22:11 | 51.77248 | -0.02021 | 36039 ft | 387 kts | 184° |
| 2026-05-07 22:11 | 51.74590 | -0.01340 | 36091 ft | 392 kts | 159° |
| 2026-05-07 22:11 | 51.72320 | 0.01095 | 36075 ft | 400 kts | 134° |
| 2026-05-07 22:12 | 51.70843 | 0.04907 | 36095 ft | 407 kts | 110° |
| 2026-05-07 22:12 | 51.70445 | 0.09425 | 36090 ft | 412 kts | 85° |
| 2026-05-07 22:12 | 51.71212 | 0.13843 | 36100 ft | 413 kts | 60° |
| 2026-05-07 22:12 | 51.73014 | 0.17400 | 36096 ft | 411 kts | 35° |
| 2026-05-07 22:13 | 51.75518 | 0.19481 | 36107 ft | 405 kts | 11° |
| 2026-05-07 22:13 | 51.78290 | 0.20130 | 36123 ft | 402 kts | 0° |
| 2026-05-07 22:13 | 51.83894 | 0.20968 | 36105 ft | 410 kts | 12° |
| 2026-05-07 22:14 | 51.86583 | 0.22561 | 36094 ft | 415 kts | 26° |
| 2026-05-07 22:14 | 51.89024 | 0.25089 | 36109 ft | 418 kts | 36° |
| 2026-05-07 22:14 | 51.93368 | 0.31343 | 36088 ft | 417 kts | 46° |
| 2026-05-07 22:15 | 51.96999 | 0.38610 | 36092 ft | 414 kts | 56° |
| 2026-05-07 22:15 | 51.99826 | 0.46683 | 36102 ft | 415 kts | 66° |
| 2026-05-07 22:16 | 52.01825 | 0.55481 | 36093 ft | 417 kts | 75° |
| 2026-05-07 22:16 | 52.02920 | 0.64726 | 36102 ft | 417 kts | 85° |
| 2026-05-07 22:17 | 52.03076 | 0.74134 | 36096 ft | 417 kts | 95° |
| 2026-05-07 22:17 | 52.02287 | 0.83448 | 36102 ft | 416 kts | 105° |
| 2026-05-07 22:18 | 51.99404 | 0.96627 | 36098 ft | 412 kts | 120° |
| 2026-05-07 22:19 | 51.96435 | 1.04530 | 36099 ft | 408 kts | 129° |
| 2026-05-07 22:19 | 51.92764 | 1.11408 | 36101 ft | 404 kts | 139° |
| 2026-05-07 22:20 | 51.88456 | 1.17161 | 36099 ft | 399 kts | 149° |
| 2026-05-07 22:20 | 51.83664 | 1.21598 | 36100 ft | 395 kts | 159° |
| 2026-05-07 22:21 | 51.78541 | 1.24603 | 36090 ft | 390 kts | 168° |
| 2026-05-07 22:21 | 51.73233 | 1.26112 | 36097 ft | 385 kts | 179° |
| 2026-05-07 22:22 | 51.67907 | 1.26097 | 36101 ft | 381 kts | 188° |
| 2026-05-07 22:22 | 51.62707 | 1.24577 | 36101 ft | 378 kts | 198° |
| 2026-05-07 22:23 | 51.57835 | 1.21642 | 36101 ft | 375 kts | 208° |
| 2026-05-07 22:23 | 51.53367 | 1.17353 | 36099 ft | 373 kts | 218° |
| 2026-05-07 22:24 | 51.49473 | 1.11867 | 36096 ft | 372 kts | 228° |
| 2026-05-07 22:24 | 51.46270 | 1.05358 | 36097 ft | 372 kts | 238° |
| 2026-05-07 22:25 | 51.43855 | 0.98019 | 36100 ft | 373 kts | 248° |
| 2026-05-07 22:25 | 51.42311 | 0.90099 | 36105 ft | 374 kts | 257° |
| 2026-05-07 22:26 | 51.41681 | 0.81818 | 36104 ft | 376 kts | 267° |
| 2026-05-07 22:26 | 51.41993 | 0.73433 | 36099 ft | 379 kts | 277° |
| 2026-05-07 22:27 | 51.42968 | 0.66571 | 36100 ft | 381 kts | 285° |
| 2026-05-07 22:27 | 51.44977 | 0.58675 | 36103 ft | 384 kts | 295° |
| 2026-05-07 22:28 | 51.47840 | 0.51418 | 36102 ft | 387 kts | 305° |
| 2026-05-07 22:28 | 51.51475 | 0.45019 | 36096 ft | 391 kts | 315° |
| 2026-05-07 22:29 | 51.55791 | 0.39662 | 36105 ft | 394 kts | 324° |
| 2026-05-07 22:29 | 51.60662 | 0.35527 | 36097 ft | 398 kts | 334° |
| 2026-05-07 22:30 | 51.65945 | 0.32756 | 36092 ft | 401 kts | 344° |
| 2026-05-07 22:30 | 51.71483 | 0.31443 | 36098 ft | 405 kts | 354° |
| 2026-05-07 22:31 | 51.77131 | 0.31641 | 36106 ft | 407 kts | 4° |
| 2026-05-07 22:31 | 51.82678 | 0.33344 | 36118 ft | 410 kts | 13° |
| 2026-05-07 22:32 | 51.88043 | 0.36542 | 36104 ft | 412 kts | 24° |
| 2026-05-07 22:32 | 51.93032 | 0.41142 | 36100 ft | 414 kts | 33° |
| 2026-05-07 22:33 | 51.97507 | 0.47031 | 36105 ft | 415 kts | 43° |
| 2026-05-07 22:33 | 52.01332 | 0.54032 | 36096 ft | 415 kts | 53° |
| 2026-05-07 22:34 | 52.04407 | 0.61969 | 36110 ft | 415 kts | 63° |
| 2026-05-07 22:34 | 52.06645 | 0.70619 | 36106 ft | 415 kts | 72° |
| 2026-05-07 22:35 | 52.07984 | 0.79743 | 36109 ft | 415 kts | 82° |
| 2026-05-07 22:35 | 52.08387 | 0.89084 | 36106 ft | 414 kts | 92° |
| 2026-05-07 22:36 | 52.07853 | 0.98303 | 36097 ft | 412 kts | 102° |
| 2026-05-07 22:36 | 52.06393 | 1.07285 | 36102 ft | 410 kts | 112° |
| 2026-05-07 22:37 | 52.04055 | 1.15697 | 36105 ft | 408 kts | 122° |
| 2026-05-07 22:37 | 52.00912 | 1.23305 | 36115 ft | 405 kts | 132° |
| 2026-05-07 22:38 | 51.97053 | 1.29912 | 36110 ft | 402 kts | 142° |
| 2026-05-07 22:38 | 51.92607 | 1.35316 | 36108 ft | 399 kts | 152° |
| 2026-05-07 22:39 | 51.87690 | 1.39393 | 36109 ft | 395 kts | 161° |
| 2026-05-07 22:39 | 51.82464 | 1.42023 | 36108 ft | 392 kts | 171° |
| 2026-05-07 22:40 | 51.77120 | 1.43144 | 36100 ft | 388 kts | 181° |
| 2026-05-07 22:40 | 51.71758 | 1.42754 | 36105 ft | 384 kts | 191° |
| 2026-05-07 22:41 | 51.66568 | 1.40871 | 36100 ft | 381 kts | 200° |
| 2026-05-07 22:41 | 51.61706 | 1.37564 | 36101 ft | 378 kts | 210° |
| 2026-05-07 22:42 | 51.57326 | 1.32953 | 36103 ft | 376 kts | 220° |
| 2026-05-07 22:42 | 51.53552 | 1.27185 | 36101 ft | 374 kts | 230° |
| 2026-05-07 22:43 | 51.50523 | 1.20502 | 36101 ft | 372 kts | 240° |
| 2026-05-07 22:43 | 51.48287 | 1.13021 | 36101 ft | 372 kts | 250° |
| 2026-05-07 22:44 | 51.46937 | 1.05019 | 36101 ft | 372 kts | 259° |
| 2026-05-07 22:44 | 51.46514 | 0.96743 | 36101 ft | 374 kts | 269° |
| 2026-05-07 22:45 | 51.47033 | 0.88446 | 36103 ft | 376 kts | 279° |
| 2026-05-07 22:45 | 51.48487 | 0.80359 | 36104 ft | 379 kts | 289° |
| 2026-05-07 22:46 | 51.50834 | 0.72759 | 36105 ft | 382 kts | 299° |
| 2026-05-07 22:46 | 51.54013 | 0.65867 | 36105 ft | 386 kts | 309° |
| 2026-05-07 22:47 | 51.57938 | 0.59900 | 36110 ft | 391 kts | 319° |
| 2026-05-07 22:47 | 51.62493 | 0.55056 | 36106 ft | 395 kts | 329° |
| 2026-05-07 22:48 | 51.67547 | 0.51497 | 36099 ft | 399 kts | 339° |
| 2026-05-07 22:48 | 51.72918 | 0.49350 | 36102 ft | 403 kts | 348° |
| 2026-05-07 22:49 | 51.78526 | 0.48670 | 36105 ft | 406 kts | 358° |
| 2026-05-07 22:49 | 51.84168 | 0.49511 | 36108 ft | 409 kts | 8° |
| 2026-05-07 22:50 | 51.89691 | 0.51870 | 36099 ft | 411 kts | 18° |
| 2026-05-07 22:50 | 51.94913 | 0.55680 | 36100 ft | 413 kts | 27° |
| 2026-05-07 22:51 | 51.99696 | 0.60849 | 36106 ft | 414 kts | 37° |
| 2026-05-07 22:51 | 52.03901 | 0.67231 | 36106 ft | 415 kts | 47° |
| 2026-05-07 22:52 | 52.07412 | 0.74656 | 36118 ft | 415 kts | 57° |
| 2026-05-07 22:52 | 52.10134 | 0.82925 | 36112 ft | 415 kts | 67° |
| 2026-05-07 22:53 | 52.11986 | 0.91794 | 36121 ft | 414 kts | 77° |
| 2026-05-07 22:53 | 52.12922 | 1.01031 | 36094 ft | 413 kts | 86° |
| 2026-05-07 22:54 | 52.12915 | 1.10377 | 36104 ft | 412 kts | 97° |
| 2026-05-07 22:54 | 52.11970 | 1.19542 | 36109 ft | 411 kts | 107° |
| 2026-05-07 22:55 | 52.10130 | 1.28250 | 36111 ft | 409 kts | 116° |
| 2026-05-07 22:55 | 52.07425 | 1.36367 | 36114 ft | 407 kts | 126° |
| 2026-05-07 22:56 | 52.03945 | 1.43599 | 36112 ft | 405 kts | 136° |
| 2026-05-07 22:56 | 51.99800 | 1.49740 | 36109 ft | 402 kts | 146° |
| 2026-05-07 22:57 | 51.95120 | 1.54613 | 36117 ft | 399 kts | 156° |
| 2026-05-07 22:57 | 51.90038 | 1.58102 | 36112 ft | 395 kts | 166° |
| 2026-05-07 22:58 | 51.84707 | 1.60113 | 36107 ft | 392 kts | 175° |
| 2026-05-07 22:58 | 51.79300 | 1.60601 | 36089 ft | 388 kts | 185° |
| 2026-05-07 22:59 | 51.73980 | 1.59574 | 36103 ft | 384 kts | 195° |
| 2026-05-07 22:59 | 51.68901 | 1.57080 | 36102 ft | 380 kts | 205° |
| 2026-05-07 23:00 | 51.64218 | 1.53206 | 36107 ft | 377 kts | 215° |
| 2026-05-07 23:00 | 51.60077 | 1.48085 | 36104 ft | 374 kts | 225° |
| 2026-05-07 23:01 | 51.56621 | 1.41933 | 36109 ft | 373 kts | 234° |
| 2026-05-07 23:01 | 51.53906 | 1.34865 | 36103 ft | 372 kts | 244° |
| 2026-05-07 23:02 | 51.52042 | 1.27141 | 36106 ft | 372 kts | 254° |
| 2026-05-07 23:02 | 51.51082 | 1.18995 | 36102 ft | 372 kts | 264° |
| 2026-05-07 23:03 | 51.51061 | 1.10676 | 36105 ft | 374 kts | 274° |
| 2026-05-07 23:03 | 51.51983 | 1.02445 | 36107 ft | 376 kts | 284° |
| 2026-05-07 23:04 | 51.53824 | 0.94557 | 36113 ft | 379 kts | 294° |
| 2026-05-07 23:04 | 51.56539 | 0.87240 | 36107 ft | 383 kts | 303° |
| 2026-05-07 23:05 | 51.60025 | 0.80774 | 36110 ft | 388 kts | 313° |
| 2026-05-07 23:05 | 51.64233 | 0.75277 | 36104 ft | 392 kts | 323° |
| 2026-05-07 23:06 | 51.69021 | 0.70979 | 36104 ft | 397 kts | 333° |
| 2026-05-07 23:06 | 51.74250 | 0.68022 | 36103 ft | 401 kts | 343° |
| 2026-05-07 23:07 | 51.79772 | 0.66510 | 36102 ft | 405 kts | 353° |
| 2026-05-07 23:07 | 51.85428 | 0.66508 | 36107 ft | 408 kts | 2° |
| 2026-05-07 23:08 | 51.91037 | 0.68032 | 36101 ft | 411 kts | 12° |
| 2026-05-07 23:08 | 51.96420 | 0.71032 | 36104 ft | 412 kts | 22° |
| 2026-05-07 23:09 | 52.01474 | 0.75464 | 36112 ft | 414 kts | 32° |
| 2026-05-07 23:09 | 52.06026 | 0.81206 | 36118 ft | 415 kts | 41° |
| 2026-05-07 23:10 | 52.09948 | 0.88099 | 36117 ft | 415 kts | 52° |
| 2026-05-07 23:10 | 52.13120 | 0.95935 | 36103 ft | 415 kts | 61° |
| 2026-05-07 23:11 | 52.15465 | 1.04513 | 36097 ft | 415 kts | 71° |
| 2026-05-07 23:11 | 52.16913 | 1.13581 | 36106 ft | 414 kts | 81° |
| 2026-05-07 23:12 | 52.17431 | 1.22902 | 36108 ft | 413 kts | 91° |
| 2026-05-07 23:12 | 52.17010 | 1.32149 | 36112 ft | 412 kts | 101° |
| 2026-05-07 23:13 | 52.15657 | 1.41209 | 36118 ft | 411 kts | 111° |
| 2026-05-07 23:13 | 52.13413 | 1.49742 | 36106 ft | 409 kts | 121° |
| 2026-05-07 23:14 | 52.10349 | 1.57508 | 36115 ft | 407 kts | 131° |
| 2026-05-07 23:14 | 52.07238 | 1.63231 | 36113 ft | 405 kts | 139° |
| 2026-05-07 23:15 | 52.02921 | 1.69059 | 36106 ft | 402 kts | 148° |
| 2026-05-07 23:15 | 51.98104 | 1.73585 | 36112 ft | 399 kts | 158° |
| 2026-05-07 23:16 | 51.92928 | 1.76694 | 36110 ft | 395 kts | 168° |
| 2026-05-07 23:16 | 51.87547 | 1.78309 | 36108 ft | 391 kts | 178° |
| 2026-05-07 23:17 | 51.82139 | 1.78396 | 36108 ft | 387 kts | 188° |
| 2026-05-07 23:17 | 51.76861 | 1.76975 | 36093 ft | 383 kts | 197° |
| 2026-05-07 23:18 | 51.71872 | 1.74107 | 36106 ft | 379 kts | 207° |
| 2026-05-07 23:18 | 51.67321 | 1.69889 | 36103 ft | 376 kts | 217° |
| 2026-05-07 23:19 | 51.63346 | 1.64467 | 36101 ft | 374 kts | 227° |
| 2026-05-07 23:19 | 51.60075 | 1.58044 | 36104 ft | 372 kts | 237° |
| 2026-05-07 23:20 | 51.57580 | 1.50773 | 36102 ft | 372 kts | 247° |
| 2026-05-07 23:20 | 51.55949 | 1.42895 | 36102 ft | 372 kts | 256° |
| 2026-05-07 23:21 | 51.55234 | 1.34652 | 36106 ft | 373 kts | 266° |
| 2026-05-07 23:21 | 51.55462 | 1.26295 | 36105 ft | 376 kts | 276° |
| 2026-05-07 23:22 | 51.56632 | 1.18087 | 36107 ft | 379 kts | 286° |
| 2026-05-07 23:22 | 51.58714 | 1.10271 | 36113 ft | 383 kts | 296° |
| 2026-05-07 23:23 | 51.61656 | 1.03090 | 36106 ft | 386 kts | 306° |
| 2026-05-07 23:23 | 51.65368 | 0.96790 | 36107 ft | 390 kts | 316° |
| 2026-05-07 23:24 | 51.69722 | 0.91579 | 36104 ft | 395 kts | 326° |
| 2026-05-07 23:24 | 51.74645 | 0.87570 | 36105 ft | 399 kts | 335° |
| 2026-05-07 23:25 | 51.79978 | 0.84932 | 36107 ft | 403 kts | 345° |
| 2026-05-07 23:25 | 51.85561 | 0.83761 | 36110 ft | 406 kts | 355° |
| 2026-05-07 23:26 | 51.91228 | 0.84115 | 36108 ft | 409 kts | 5° |
| 2026-05-07 23:26 | 51.96817 | 0.85993 | 36109 ft | 412 kts | 14° |
| 2026-05-07 23:27 | 52.04698 | 0.91560 | 36118 ft | 414 kts | 29° |
| 2026-05-07 23:27 | 52.09402 | 0.96970 | 36104 ft | 415 kts | 39° |
| 2026-05-07 23:28 | 52.13507 | 1.03573 | 36097 ft | 416 kts | 49° |
| 2026-05-07 23:28 | 52.16881 | 1.11145 | 36105 ft | 416 kts | 59° |
| 2026-05-07 23:29 | 52.19469 | 1.19560 | 36107 ft | 416 kts | 69° |
| 2026-05-07 23:29 | 52.21178 | 1.28543 | 36111 ft | 415 kts | 78° |
| 2026-05-07 23:30 | 52.21964 | 1.37853 | 36112 ft | 414 kts | 88° |
| 2026-05-07 23:30 | 52.21804 | 1.47214 | 36117 ft | 412 kts | 98° |
| 2026-05-07 23:31 | 52.20709 | 1.56366 | 36114 ft | 410 kts | 108° |
| 2026-05-07 23:31 | 52.18712 | 1.65055 | 36112 ft | 409 kts | 118° |
| 2026-05-07 23:32 | 52.15883 | 1.72961 | 36097 ft | 397 kts | 129° |
| 2026-05-07 23:32 | 52.12369 | 1.79609 | 36087 ft | 379 kts | 140° |
| 2026-05-07 23:33 | 52.08370 | 1.84750 | 36091 ft | 360 kts | 152° |
| 2026-05-07 23:33 | 52.03998 | 1.88337 | 36092 ft | 340 kts | 164° |
| 2026-05-07 23:34 | 52.01811 | 1.89471 | 36090 ft | 329 kts | 170° |
| 2026-05-07 23:34 | 51.99599 | 1.90201 | 36088 ft | 319 kts | 176° |
| 2026-05-07 23:34 | 51.95298 | 1.90419 | 35886 ft | 304 kts | 190° |
| 2026-05-07 23:35 | 51.93217 | 1.89925 | 35607 ft | 302 kts | 196° |
| 2026-05-07 23:35 | 51.91182 | 1.89024 | 35300 ft | 303 kts | 203° |
| 2026-05-07 23:35 | 51.89238 | 1.87732 | 35039 ft | 302 kts | 210° |
| 2026-05-07 23:35 | 51.87419 | 1.86076 | 34845 ft | 298 kts | 217° |
| 2026-05-07 23:36 | 51.85765 | 1.84098 | 34760 ft | 292 kts | 223° |
| 2026-05-07 23:36 | 51.84313 | 1.81858 | 34670 ft | 286 kts | 230° |
| 2026-05-07 23:36 | 51.83070 | 1.79381 | 34532 ft | 282 kts | 237° |
| 2026-05-07 23:36 | 51.82045 | 1.76694 | 34335 ft | 281 kts | 244° |
| 2026-05-07 23:37 | 51.81247 | 1.73817 | 34105 ft | 281 kts | 251° |
| 2026-05-07 23:37 | 51.80688 | 1.70792 | 33854 ft | 281 kts | 258° |
| 2026-05-07 23:37 | 51.80380 | 1.67669 | 33638 ft | 281 kts | 265° |
| 2026-05-07 23:37 | 51.80330 | 1.64522 | 33466 ft | 280 kts | 271° |
| 2026-05-07 23:38 | 51.80537 | 1.61400 | 33313 ft | 279 kts | 279° |
| 2026-05-07 23:38 | 51.80996 | 1.58369 | 33150 ft | 278 kts | 286° |
| 2026-05-07 23:38 | 51.81700 | 1.55457 | 32942 ft | 279 kts | 293° |
| 2026-05-07 23:38 | 51.82640 | 1.52708 | 32740 ft | 281 kts | 300° |
| 2026-05-07 23:39 | 51.83788 | 1.50196 | 32531 ft | 283 kts | 307° |
| 2026-05-07 23:39 | 51.85156 | 1.47897 | 32336 ft | 285 kts | 315° |
| 2026-05-07 23:39 | 51.86707 | 1.45894 | 32169 ft | 286 kts | 322° |
| 2026-05-07 23:39 | 51.88436 | 1.44201 | 31989 ft | 288 kts | 329° |
| 2026-05-07 23:40 | 51.90252 | 1.42904 | 31808 ft | 290 kts | 336° |
| 2026-05-07 23:40 | 51.92196 | 1.41970 | 31632 ft | 292 kts | 344° |
| 2026-05-07 23:40 | 51.94210 | 1.41439 | 31454 ft | 294 kts | 352° |
| 2026-05-07 23:40 | 51.96259 | 1.41323 | 31296 ft | 295 kts | 359° |
| 2026-05-07 23:41 | 51.98307 | 1.41626 | 31149 ft | 296 kts | 6° |
| 2026-05-07 23:41 | 52.00326 | 1.42347 | 31002 ft | 297 kts | 14° |
| 2026-05-07 23:41 | 52.02275 | 1.43471 | 30845 ft | 298 kts | 21° |
| 2026-05-07 23:41 | 52.04130 | 1.44988 | 30696 ft | 299 kts | 29° |
| 2026-05-07 23:42 | 52.05859 | 1.46873 | 30544 ft | 299 kts | 36° |
| 2026-05-07 23:42 | 52.07467 | 1.49029 | 30390 ft | 299 kts | 39° |
| 2026-05-07 23:42 | 52.09045 | 1.51229 | 30257 ft | 298 kts | 39° |
| 2026-05-07 23:42 | 52.10611 | 1.53435 | 30120 ft | 296 kts | 38° |
| 2026-05-07 23:43 | 52.12159 | 1.55624 | 29968 ft | 295 kts | 39° |
| 2026-05-07 23:43 | 52.13687 | 1.57784 | 29816 ft | 294 kts | 39° |
| 2026-05-07 23:43 | 52.15224 | 1.59958 | 29649 ft | 292 kts | 39° |
| 2026-05-07 23:43 | 52.16759 | 1.62126 | 29495 ft | 292 kts | 39° |
| 2026-05-07 23:44 | 52.18293 | 1.64290 | 29321 ft | 291 kts | 39° |
| 2026-05-07 23:44 | 52.19821 | 1.66446 | 29172 ft | 290 kts | 39° |
| 2026-05-07 23:44 | 52.21346 | 1.68599 | 29029 ft | 289 kts | 39° |
| 2026-05-07 23:44 | 52.22862 | 1.70737 | 28892 ft | 288 kts | 39° |
| 2026-05-07 23:45 | 52.24374 | 1.72870 | 28748 ft | 286 kts | 39° |
| 2026-05-07 23:45 | 52.25877 | 1.74991 | 28610 ft | 285 kts | 39° |
| 2026-05-07 23:45 | 52.27375 | 1.77106 | 28480 ft | 284 kts | 39° |
| 2026-05-07 23:45 | 52.28865 | 1.79232 | 28330 ft | 284 kts | 39° |
| 2026-05-07 23:46 | 52.30352 | 1.81363 | 28178 ft | 284 kts | 39° |
| 2026-05-07 23:46 | 52.31832 | 1.83486 | 28040 ft | 283 kts | 39° |
| 2026-05-07 23:46 | 52.33308 | 1.85600 | 27909 ft | 282 kts | 39° |
| 2026-05-07 23:46 | 52.34781 | 1.87710 | 27785 ft | 281 kts | 39° |
| 2026-05-07 23:47 | 52.36245 | 1.89806 | 27662 ft | 279 kts | 39° |
| 2026-05-07 23:47 | 52.37708 | 1.91901 | 27541 ft | 279 kts | 39° |
| 2026-05-07 23:47 | 52.39168 | 1.93989 | 27395 ft | 278 kts | 39° |
| 2026-05-07 23:47 | 52.40621 | 1.96067 | 27269 ft | 277 kts | 39° |
| 2026-05-07 23:48 | 52.42075 | 1.98143 | 27147 ft | 277 kts | 39° |
| 2026-05-07 23:48 | 52.43522 | 2.00217 | 27021 ft | 276 kts | 39° |
| 2026-05-07 23:48 | 52.44960 | 2.02286 | 26908 ft | 275 kts | 39° |
| 2026-05-07 23:48 | 52.46377 | 2.04323 | 26793 ft | 274 kts | 39° |
| 2026-05-07 23:49 | 52.47807 | 2.06378 | 26668 ft | 273 kts | 39° |
| 2026-05-07 23:49 | 52.49236 | 2.08429 | 26558 ft | 272 kts | 39° |
| 2026-05-07 23:49 | 52.50680 | 2.10502 | 26454 ft | 272 kts | 39° |
| 2026-05-07 23:49 | 52.52083 | 2.12512 | 26344 ft | 271 kts | 39° |
| 2026-05-07 23:50 | 52.53491 | 2.14524 | 26215 ft | 263 kts | 38° |
| 2026-05-07 23:50 | 52.54858 | 2.16513 | 25797 ft | 265 kts | 40° |
| 2026-05-07 23:50 | 52.56206 | 2.18682 | 25165 ft | 277 kts | 45° |
| 2026-05-07 23:50 | 52.57446 | 2.21127 | 24819 ft | 277 kts | 54° |
| 2026-05-07 23:51 | 52.58434 | 2.23767 | 24691 ft | 266 kts | 63° |
| 2026-05-07 23:51 | 52.59133 | 2.26553 | 24386 ft | 264 kts | 73° |
| 2026-05-07 23:51 | 52.59548 | 2.29532 | 23859 ft | 271 kts | 84° |
| 2026-05-07 23:51 | 52.59637 | 2.32625 | 23461 ft | 270 kts | 95° |
| 2026-05-07 23:52 | 52.59390 | 2.35619 | 23272 ft | 258 kts | 106° |
| 2026-05-07 23:52 | 52.58870 | 2.38387 | 22989 ft | 251 kts | 116° |
| 2026-05-07 23:52 | 52.58089 | 2.40966 | 22483 ft | 253 kts | 126° |
| 2026-05-07 23:52 | 52.57058 | 2.43309 | 22061 ft | 252 kts | 135° |
| 2026-05-07 23:53 | 52.55853 | 2.45325 | 21853 ft | 242 kts | 143° |
| 2026-05-07 23:53 | 52.54547 | 2.46978 | 21577 ft | 235 kts | 151° |
| 2026-05-07 23:53 | 52.53133 | 2.48321 | 21126 ft | 236 kts | 158° |
| 2026-05-07 23:53 | 52.51607 | 2.49333 | 20734 ft | 235 kts | 166° |
| 2026-05-07 23:54 | 52.50046 | 2.49955 | 20486 ft | 227 kts | 174° |
| 2026-05-07 23:54 | 52.48494 | 2.50211 | 20189 ft | 223 kts | 182° |
| 2026-05-07 23:54 | 52.46941 | 2.50132 | 19771 ft | 224 kts | 189° |
| 2026-05-07 23:54 | 52.45402 | 2.49733 | 19432 ft | 223 kts | 195° |
| 2026-05-07 23:55 | 52.43935 | 2.49037 | 19201 ft | 216 kts | 203° |
| 2026-05-07 23:55 | 52.42576 | 2.48023 | 18907 ft | 214 kts | 211° |
| 2026-05-07 23:55 | 52.41345 | 2.46646 | 18535 ft | 216 kts | 221° |
| 2026-05-07 23:55 | 52.40297 | 2.44934 | 18194 ft | 215 kts | 231° |
| 2026-05-07 23:56 | 52.39478 | 2.42920 | 17903 ft | 212 kts | 242° |
| 2026-05-07 23:56 | 52.38908 | 2.40709 | 17558 ft | 211 kts | 251° |
| 2026-05-07 23:56 | 52.38568 | 2.38369 | 17184 ft | 212 kts | 260° |
| 2026-05-07 23:56 | 52.38443 | 2.35959 | 16847 ft | 212 kts | 268° |
| 2026-05-07 23:57 | 52.38520 | 2.33553 | 16556 ft | 211 kts | 275° |
| 2026-05-07 23:57 | 52.38812 | 2.31194 | 16222 ft | 212 kts | 284° |
| 2026-05-07 23:57 | 52.39321 | 2.28915 | 15871 ft | 215 kts | 292° |
| 2026-05-07 23:57 | 52.40040 | 2.26765 | 15566 ft | 215 kts | 301° |
| 2026-05-07 23:58 | 52.40934 | 2.24815 | 15283 ft | 214 kts | 308° |
| 2026-05-07 23:58 | 52.41979 | 2.23069 | 14968 ft | 215 kts | 316° |
| 2026-05-07 23:58 | 52.43163 | 2.21548 | 14648 ft | 217 kts | 324° |
| 2026-05-07 23:58 | 52.44463 | 2.20293 | 14360 ft | 217 kts | 332° |
| 2026-05-07 23:59 | 52.45848 | 2.19322 | 14091 ft | 216 kts | 339° |
| 2026-05-07 23:59 | 52.47297 | 2.18651 | 13775 ft | 217 kts | 347° |
| 2026-05-07 23:59 | 52.48794 | 2.18302 | 13442 ft | 217 kts | 355° |
| 2026-05-07 23:59 | 52.50297 | 2.18264 | 13158 ft | 215 kts | 2° |
| 2026-05-08 00:00 | 52.51784 | 2.18554 | 12838 ft | 216 kts | 11° |
| 2026-05-08 00:00 | 52.52753 | 2.18927 | 12612 ft | 216 kts | 16° |
| 2026-05-08 00:00 | 52.54170 | 2.19746 | 12306 ft | 215 kts | 24° |
| 2026-05-08 00:00 | 52.55495 | 2.20842 | 12034 ft | 212 kts | 31° |
| 2026-05-08 00:01 | 52.56722 | 2.22184 | 11745 ft | 212 kts | 38° |
| 2026-05-08 00:01 | 52.57845 | 2.23742 | 11458 ft | 210 kts | 45° |
| 2026-05-08 00:01 | 52.58846 | 2.25476 | 11193 ft | 208 kts | 52° |
| 2026-05-08 00:01 | 52.59717 | 2.27362 | 10897 ft | 207 kts | 58° |
| 2026-05-08 00:02 | 52.60458 | 2.29378 | 10617 ft | 205 kts | 64° |
| 2026-05-08 00:02 | 52.61057 | 2.31494 | 10384 ft | 202 kts | 71° |
| 2026-05-08 00:02 | 52.61506 | 2.33664 | 10108 ft | 200 kts | 77° |
| 2026-05-08 00:02 | 52.61807 | 2.35903 | 9767 ft | 201 kts | 84° |
| 2026-05-08 00:03 | 52.61955 | 2.38172 | 9486 ft | 198 kts | 90° |
| 2026-05-08 00:03 | 52.61948 | 2.40412 | 9226 ft | 194 kts | 96° |
| 2026-05-08 00:03 | 52.61789 | 2.42618 | 8899 ft | 194 kts | 103° |
| 2026-05-08 00:03 | 52.61485 | 2.44779 | 8600 ft | 193 kts | 109° |
| 2026-05-08 00:04 | 52.61039 | 2.46842 | 8344 ft | 190 kts | 116° |
| 2026-05-08 00:04 | 52.60456 | 2.48770 | 8052 ft | 188 kts | 123° |
| 2026-05-08 00:04 | 52.59743 | 2.50571 | 7752 ft | 187 kts | 129° |
| 2026-05-08 00:04 | 52.58921 | 2.52210 | 7516 ft | 184 kts | 136° |
| 2026-05-08 00:05 | 52.58004 | 2.53639 | 7254 ft | 181 kts | 143° |
| 2026-05-08 00:05 | 52.56983 | 2.54852 | 6963 ft | 181 kts | 150° |
| 2026-05-08 00:05 | 52.55899 | 2.55824 | 6722 ft | 178 kts | 158° |
| 2026-05-08 00:05 | 52.54749 | 2.56526 | 6475 ft | 175 kts | 167° |
| 2026-05-08 00:06 | 52.53547 | 2.56873 | 6152 ft | 176 kts | 177° |
| 2026-05-08 00:06 | 52.52322 | 2.56836 | 5886 ft | 175 kts | 187° |
| 2026-05-08 00:06 | 52.51142 | 2.56459 | 5658 ft | 172 kts | 196° |
| 2026-05-08 00:06 | 52.50019 | 2.55789 | 5362 ft | 173 kts | 204° |
| 2026-05-08 00:07 | 52.48964 | 2.54826 | 5066 ft | 175 kts | 213° |
| 2026-05-08 00:07 | 52.48019 | 2.53580 | 4815 ft | 174 kts | 223° |
| 2026-05-08 00:07 | 52.47237 | 2.52070 | 4546 ft | 175 kts | 233° |
| 2026-05-08 00:07 | 52.46626 | 2.50335 | 4253 ft | 177 kts | 243° |